Milford, Kentucky
Current Conditions -  °F | °C
As of 6:55 AM on Monday 22 Dec 2014 (Local Time) from KFGX Reporting Station
Overcast Overcast  
Wind Chill: 33°   Ceiling: 6000
Heat Index: 33°   Visibility: 10mi
Dew Point: 29°   Wind: 3mph
Humidity: 86%   Direction: 100°E
Pressure: 30.04"   Gusts: NA
Location:  38.58°N, 84.16°W
Report Text: KFGX 221155Z AUTO 10003KT 10SM SCT035 OVC060 01/M02 A3004 RMK AO2 T00051016 10005 21023
Loading
Personal Weather Stations






























Interactive Weather Map New forecast layout! Learn more

10-Day Weather Forecast

Advertisements
Track Severe Weather on mobile